Terminal Aerodrome Forecast
Issued by NWS

Home | Current Version | Previous Version | Text Only | Print | Product List | Glossary On
Versions: 1 2 3 4 5 6 7 8 9 10 11 12 13 14 15 16 17 18 19 20 21 22 23 24 25 26 27 28
000
FTUS42 KJAX 260833 AAC
TAFCRG
TAF AMD
KCRG 260833Z 2609/2706 25010G15KT P6SM BKN015
     FM261300 25012G20KT P6SM SCT020 SCT200
     FM261700 26014G24KT P6SM VCTS SCT040CB BKN250
     FM262200 23009KT P6SM VCSH SCT030 BKN150 BKN250=

USA.gov is the U.S. government's official web portal to all federal, state and local government web resources and services.